Bloomington, IN (47408)

02:21 AM EST del 20 Dicembre 2014 (GMT -0500)
KINBLOOM23 | Change Station
CLOSE
Current Station
Stazione meteo personale
Location: Bloomington, IN
Altitudine: 800 ft
Stazioni meteo nelle vicinanze

Alt. 800 ft 39.15 °N, 86.51 °W | Updated 24 seconds ago

Coperto
Coperto
29.8 °F
Sembra 30 °F
N
0.0
Vento Variabile Vento da ENE

Oggi
Massima -- | Minima -- °F
--% Possibilità di precip.
Ieri
Massima -- | Minima -- °F
Precip. -- in
8:01 AM 5:25 PM
Luna calante, 4% visible
Pressione 30.29 in
Visibilità 10.0 miglia
Nuvole Coperto 2000 ft
Raffreddamento del vento 30 °F
Punto di rugiada 25 °F
Umidità 82%
Piovosità 0.00 in
Spessore del manto nevoso Non disponibile.
Raggi UV 0 fuori da 12
Polline .10 fuori da 12
Qualità dell'aria Non disponibile.
Flu Activity Non disponibile.
METAR KBMG 200653Z 00000KT 10SM OVC020 M01/M05 A3027 RMK AO2 SLP257 T10111050

More Conditions Fewer Conditions

Pressione 30.29 in
Visibilità 10.0 miglia
Nuvole Coperto 2000 ft
Raffreddamento del vento 30 °F
Punto di rugiada 25 °F
Umidità 82%
Piovosità 0.00 in
Spessore del manto nevoso Non disponibile.
Raggi UV 0 fuori da 12
Polline .10 fuori da 12
Qualità dell'aria Non disponibile.
Flu Activity Non disponibile.
METAR KBMG 200653Z 00000KT 10SM OVC020 M01/M05 A3027 RMK AO2 SLP257 T10111050

More Conditions Fewer Conditions

10-Day Weather Forecast

Almanac

Astronomia

Dec. 20, 2014 Alba Tramonto
Ora attuale
Crepuscolo civile
Crepuscolo nautico
Crepuscolo astronomico
Luna
Estensione della luce visibile
Lunghezza del giorno
Tomorrow will be .
, % of the Moon is Illuminated

Gli estremi di oggi

State Highs State Lows

Community

WunderPhotos

Upload Photos

1,779,146 foto caricate!

WunderBlogs® & News

Nearby

Qualità dell'aria

  Qualità dell'aria Indice AQ Inquinante
Not available.

Profondità neve

Stazione Profondità Altitudine

Attività sismica

Città  Distanza Mag. Data & Ora
Minimo Magnitudo Mostrato è 2.5.

Temperature delle acque costiere

Località Temperatura

Stazioni meteo nelle vicinanze